Time;durP1;ratioP1;P1;durP2;ratioP2;P2;SDS_P1;SDS_P2;PMS_P1;PMS_P2;Temp;Humidity;BMP_temperature;BMP_pressure;BME280_temperature;BME280_humidity;BME280_pressure;Samples;Min_cycle;Max_cycle;Signal;HPM_P1;HPM_P2
2023/12/18 00:02:24;;;;;;;16.10;5.35;;;;;;;;;;6135388;23;20096;-82
2023/12/18 00:04:51;;;;;;;16.92;5.40;;;;;;;;;;6135144;23;20017;-82
2023/12/18 00:07:17;;;;;;;17.25;5.25;;;;;;;;;;6134301;23;20013;-82
2023/12/18 00:09:43;;;;;;;15.57;5.43;;;;;;;;;;6134778;23;20480;-82
2023/12/18 00:12:09;;;;;;;13.98;5.13;;;;;;;;;;6134995;23;20032;-82
2023/12/18 00:14:35;;;;;;;13.85;4.68;;;;;;;;;;6159636;23;20319;-82
2023/12/18 00:17:01;;;;;;;12.75;4.43;;;;;;;;;;6134690;23;20021;-82
2023/12/18 00:19:27;;;;;;;17.52;5.25;;;;;;;;;;6134878;23;20013;-82
2023/12/18 00:21:53;;;;;;;13.77;4.45;;;;;;;;;;6135188;23;20024;-82
2023/12/18 00:24:21;;;;;;;12.63;5.18;;;;;;;;;;6134697;23;20096;-82
2023/12/18 00:26:47;;;;;;;11.57;4.68;;;;;;;;;;6134876;23;20024;-82
2023/12/18 00:29:14;;;;;;;15.93;5.20;;;;;;;;;;6134580;23;20132;-82
2023/12/18 00:31:40;;;;;;;12.93;4.43;;;;;;;;;;6134932;23;20464;-82
2023/12/18 00:34:06;;;;;;;15.15;4.53;;;;;;;;;;6134429;23;20021;-82
2023/12/18 00:36:32;;;;;;;11.88;4.50;;;;;;;;;;6134748;23;20461;-82
2023/12/18 00:38:58;;;;;;;13.10;4.32;;;;;;;;;;6135516;23;20375;-82
2023/12/18 00:41:24;;;;;;;13.20;4.95;;;;;;;;;;6135292;23;20025;-82
2023/12/18 00:43:50;;;;;;;12.48;4.50;;;;;;;;;;6134903;23;20434;-82
2023/12/18 00:46:16;;;;;;;14.55;4.30;;;;;;;;;;6135108;23;20027;-82
2023/12/18 00:48:42;;;;;;;13.18;4.53;;;;;;;;;;6135143;23;20013;-84
2023/12/18 00:51:11;;;;;;;10.63;4.43;;;;;;;;;;6136775;23;20013;-84
2023/12/18 00:53:37;;;;;;;9.98;4.40;;;;;;;;;;6137240;23;20020;-84
2023/12/18 00:56:04;;;;;;;17.83;4.68;;;;;;;;;;6161582;23;20021;-83
2023/12/18 00:58:30;;;;;;;14.05;5.13;;;;;;;;;;6137729;23;20083;-84
2023/12/18 01:00:56;;;;;;;14.00;5.65;;;;;;;;;;6136980;23;20028;-84
2023/12/18 01:03:24;;;;;;;9.27;4.60;;;;;;;;;;6137355;23;20021;-84
2023/12/18 01:05:50;;;;;;;12.38;4.97;;;;;;;;;;6160942;23;20118;-84
2023/12/18 01:08:16;;;;;;;10.48;5.05;;;;;;;;;;6161810;23;20025;-84
2023/12/18 01:10:42;;;;;;;18.00;5.35;;;;;;;;;;6136676;23;20052;-84
2023/12/18 01:13:08;;;;;;;10.52;4.20;;;;;;;;;;6136933;23;20400;-84
2023/12/18 01:15:35;;;;;;;10.52;4.70;;;;;;;;;;6161344;23;20023;-84
2023/12/18 01:18:01;;;;;;;13.65;4.45;;;;;;;;;;6136327;23;20430;-84
2023/12/18 01:20:27;;;;;;;15.38;4.13;;;;;;;;;;6160805;23;20059;-84
2023/12/18 01:22:53;;;;;;;15.27;4.90;;;;;;;;;;6136853;23;20013;-83
2023/12/18 01:25:19;;;;;;;13.80;4.53;;;;;;;;;;6160359;23;20450;-84
2023/12/18 01:27:45;;;;;;;10.77;4.65;;;;;;;;;;6136663;23;20020;-82
2023/12/18 01:30:12;;;;;;;11.15;4.35;;;;;;;;;;6135659;23;20107;-82
2023/12/18 01:32:38;;;;;;;12.90;4.97;;;;;;;;;;6135641;23;20496;-82
2023/12/18 01:35:04;;;;;;;13.63;4.20;;;;;;;;;;6135670;23;20476;-82
2023/12/18 01:37:30;;;;;;;12.05;4.15;;;;;;;;;;6135762;23;20028;-82
2023/12/18 01:39:57;;;;;;;11.05;4.22;;;;;;;;;;6135562;23;20095;-82
2023/12/18 01:42:23;;;;;;;17.00;4.75;;;;;;;;;;6135821;23;20056;-82
2023/12/18 01:44:49;;;;;;;14.70;4.40;;;;;;;;;;6136282;23;20066;-82
2023/12/18 01:47:17;;;;;;;12.65;4.90;;;;;;;;;;6136989;23;20021;-82
2023/12/18 01:49:43;;;;;;;17.30;4.78;;;;;;;;;;6135834;23;20017;-82
2023/12/18 01:52:09;;;;;;;11.65;4.28;;;;;;;;;;6136435;23;20017;-82
2023/12/18 01:54:38;;;;;;;9.02;4.40;;;;;;;;;;6135519;23;20017;-82
2023/12/18 01:57:05;;;;;;;12.05;4.28;;;;;;;;;;6135326;23;20017;-82
2023/12/18 01:59:32;;;;;;;17.75;5.22;;;;;;;;;;6160012;23;20049;-82
2023/12/18 02:01:59;;;;;;;9.88;4.03;;;;;;;;;;6135044;23;20019;-82
2023/12/18 02:04:25;;;;;;;14.48;5.30;;;;;;;;;;6135664;23;20032;-82
2023/12/18 02:06:51;;;;;;;10.40;4.57;;;;;;;;;;6135735;23;20024;-82
2023/12/18 02:09:18;;;;;;;10.25;4.40;;;;;;;;;;6135885;23;20071;-82
2023/12/18 02:11:47;;;;;;;9.55;4.22;;;;;;;;;;6135706;23;20021;-82
2023/12/18 02:14:13;;;;;;;11.73;4.90;;;;;;;;;;6186604;23;20013;-82
2023/12/18 02:16:39;;;;;;;14.27;4.50;;;;;;;;;;6136044;23;20441;-82
2023/12/18 02:19:05;;;;;;;16.05;5.20;;;;;;;;;;6135798;23;20378;-82
2023/12/18 02:21:31;;;;;;;11.38;4.25;;;;;;;;;;6159928;23;20013;-82
2023/12/18 02:23:57;;;;;;;9.23;4.22;;;;;;;;;;6160145;23;20099;-82
2023/12/18 02:26:23;;;;;;;17.58;4.70;;;;;;;;;;6135188;23;20041;-82
2023/12/18 02:28:50;;;;;;;10.95;4.50;;;;;;;;;;6135445;23;20013;-82
2023/12/18 02:31:18;;;;;;;14.00;4.63;;;;;;;;;;6135590;23;20024;-82
2023/12/18 02:33:48;;;;;;;14.25;4.65;;;;;;;;;;6135442;23;20703;-82
2023/12/18 02:36:15;;;;;;;11.70;4.45;;;;;;;;;;6135912;23;20021;-82
2023/12/18 02:38:41;;;;;;;17.20;4.35;;;;;;;;;;6136256;23;20073;-82
2023/12/18 02:41:07;;;;;;;10.60;4.43;;;;;;;;;;6160493;23;20017;-82
2023/12/18 02:43:33;;;;;;;11.10;4.50;;;;;;;;;;6135853;23;20036;-82
2023/12/18 02:45:59;;;;;;;14.68;4.40;;;;;;;;;;6135420;23;20044;-82
2023/12/18 02:48:25;;;;;;;10.75;4.60;;;;;;;;;;6135392;23;20049;-82
2023/12/18 02:50:51;;;;;;;11.52;4.30;;;;;;;;;;6135711;23;20021;-82
2023/12/18 02:53:17;;;;;;;14.10;4.40;;;;;;;;;;6136031;23;20019;-83
2023/12/18 02:55:44;;;;;;;9.98;3.90;;;;;;;;;;6135723;23;20310;-82
2023/12/18 02:58:10;;;;;;;15.35;4.32;;;;;;;;;;6160057;23;20017;-82
2023/12/18 03:00:36;;;;;;;13.60;4.55;;;;;;;;;;6135878;23;20063;-82
2023/12/18 03:03:02;;;;;;;9.75;4.13;;;;;;;;;;6135880;23;20104;-82
2023/12/18 03:05:28;;;;;;;13.13;4.22;;;;;;;;;;6159479;23;20342;-82
2023/12/18 03:07:54;;;;;;;9.82;3.92;;;;;;;;;;6135744;23;20104;-82
2023/12/18 03:10:20;;;;;;;10.65;4.10;;;;;;;;;;6159334;23;20017;-82
2023/12/18 03:12:47;;;;;;;14.25;5.22;;;;;;;;;;6134918;23;20013;-82
2023/12/18 03:15:13;;;;;;;14.23;4.75;;;;;;;;;;6160247;23;20017;-82
2023/12/18 03:17:39;;;;;;;9.57;4.22;;;;;;;;;;6185901;23;20020;-82
2023/12/18 03:20:06;;;;;;;10.65;4.28;;;;;;;;;;6135755;23;20013;-82
2023/12/18 03:22:32;;;;;;;12.02;4.20;;;;;;;;;;6186373;23;20021;-82
2023/12/18 03:24:58;;;;;;;12.85;4.25;;;;;;;;;;6134877;23;20013;-82
2023/12/18 03:27:24;;;;;;;19.48;4.60;;;;;;;;;;6135398;23;20056;-82
2023/12/18 03:29:50;;;;;;;9.32;4.05;;;;;;;;;;6135739;23;20025;-82
2023/12/18 03:32:16;;;;;;;11.65;4.22;;;;;;;;;;6135616;23;20319;-82
2023/12/18 03:34:42;;;;;;;10.52;4.20;;;;;;;;;;6160509;23;20045;-82
2023/12/18 03:37:08;;;;;;;13.05;4.53;;;;;;;;;;6135375;23;20342;-82
2023/12/18 03:39:35;;;;;;;12.02;4.30;;;;;;;;;;6159894;23;20383;-82
2023/12/18 03:42:01;;;;;;;11.85;4.68;;;;;;;;;;6135225;23;20438;-82
2023/12/18 03:44:27;;;;;;;14.38;4.70;;;;;;;;;;6135218;23;20017;-82
2023/12/18 03:46:53;;;;;;;15.88;4.57;;;;;;;;;;6159894;23;20104;-82
2023/12/18 03:49:19;;;;;;;15.15;4.47;;;;;;;;;;6135238;23;20056;-82
2023/12/18 03:51:45;;;;;;;13.57;4.65;;;;;;;;;;6135420;23;20374;-82
2023/12/18 03:54:11;;;;;;;12.95;3.85;;;;;;;;;;6135583;23;20095;-82
2023/12/18 03:56:37;;;;;;;14.57;4.10;;;;;;;;;;6159911;23;20346;-82
2023/12/18 03:59:03;;;;;;;11.00;4.00;;;;;;;;;;6135454;23;20017;-83
2023/12/18 04:01:33;;;;;;;13.95;4.03;;;;;;;;;;6135369;23;20017;-82
2023/12/18 04:03:59;;;;;;;13.88;3.88;;;;;;;;;;6136006;23;20017;-82
2023/12/18 04:06:26;;;;;;;12.65;4.00;;;;;;;;;;6170276;23;20027;-83
2023/12/18 04:08:52;;;;;;;13.20;3.80;;;;;;;;;;6149983;23;20056;-82
2023/12/18 04:11:19;;;;;;;18.13;4.25;;;;;;;;;;6153121;23;20040;-82
2023/12/18 04:13:45;;;;;;;10.80;3.78;;;;;;;;;;6137772;23;20021;-82
2023/12/18 04:16:11;;;;;;;13.40;4.80;;;;;;;;;;6137792;23;20056;-82
2023/12/18 04:18:37;;;;;;;13.25;4.70;;;;;;;;;;6136872;23;20040;-82
2023/12/18 04:21:03;;;;;;;9.75;4.55;;;;;;;;;;6135954;23;20028;-82
2023/12/18 04:23:29;;;;;;;13.60;4.00;;;;;;;;;;6136319;23;20446;-82
2023/12/18 04:25:55;;;;;;;14.02;4.15;;;;;;;;;;6162766;23;20017;-82
2023/12/18 04:28:21;;;;;;;14.85;4.43;;;;;;;;;;6139026;23;20458;-82
2023/12/18 04:30:47;;;;;;;16.67;3.95;;;;;;;;;;6138865;23;20021;-82
2023/12/18 04:33:14;;;;;;;10.43;4.10;;;;;;;;;;6163801;23;20076;-82
2023/12/18 04:35:41;;;;;;;11.40;4.15;;;;;;;;;;6139811;23;20441;-82
2023/12/18 04:38:07;;;;;;;12.07;4.20;;;;;;;;;;6139175;23;20087;-82
2023/12/18 04:40:34;;;;;;;15.43;4.45;;;;;;;;;;6140411;23;20044;-82
2023/12/18 04:43:00;;;;;;;12.52;4.25;;;;;;;;;;6139417;23;20303;-82
2023/12/18 04:45:26;;;;;;;13.35;4.63;;;;;;;;;;6138669;23;20017;-82
2023/12/18 04:47:52;;;;;;;10.35;4.05;;;;;;;;;;6139042;23;20028;-82
2023/12/18 04:50:18;;;;;;;14.20;4.15;;;;;;;;;;6138937;23;20028;-82
2023/12/18 04:52:44;;;;;;;13.18;4.50;;;;;;;;;;6139455;23;20032;-82
2023/12/18 04:55:10;;;;;;;14.02;4.05;;;;;;;;;;6138521;23;20044;-82
2023/12/18 04:57:36;;;;;;;16.20;4.57;;;;;;;;;;6138788;23;20021;-82
2023/12/18 05:00:03;;;;;;;13.45;4.45;;;;;;;;;;6137480;23;20724;-82
2023/12/18 05:02:29;;;;;;;13.00;4.38;;;;;;;;;;6137608;23;20021;-82
2023/12/18 05:04:55;;;;;;;12.60;4.72;;;;;;;;;;6137889;23;20021;-82
2023/12/18 05:07:21;;;;;;;14.57;3.88;;;;;;;;;;6137928;23;20013;-82
2023/12/18 05:09:47;;;;;;;15.00;4.22;;;;;;;;;;6139241;23;20017;-82
2023/12/18 05:12:13;;;;;;;15.48;5.22;;;;;;;;;;6137714;23;20431;-82
2023/12/18 05:14:39;;;;;;;13.27;3.95;;;;;;;;;;6138114;23;20383;-82
2023/12/18 05:17:05;;;;;;;13.65;4.28;;;;;;;;;;6138072;23;20032;-82
2023/12/18 05:19:31;;;;;;;15.45;4.53;;;;;;;;;;6163155;23;20052;-82
2023/12/18 05:21:58;;;;;;;15.90;4.93;;;;;;;;;;6138677;23;20041;-82
2023/12/18 05:24:24;;;;;;;13.25;4.07;;;;;;;;;;6138604;23;20019;-82
2023/12/18 05:26:50;;;;;;;14.18;4.63;;;;;;;;;;6138820;23;20513;-82
2023/12/18 05:29:16;;;;;;;14.50;4.43;;;;;;;;;;6138805;23;20053;-82
2023/12/18 05:31:42;;;;;;;18.90;5.07;;;;;;;;;;6138082;23;20096;-82
2023/12/18 05:34:08;;;;;;;16.70;4.18;;;;;;;;;;6138498;23;20013;-83
2023/12/18 05:36:34;;;;;;;16.25;4.85;;;;;;;;;;6138833;23;20017;-82
2023/12/18 05:39:00;;;;;;;11.93;4.85;;;;;;;;;;6138145;23;20073;-82
2023/12/18 05:41:26;;;;;;;10.10;4.10;;;;;;;;;;6138545;23;20017;-83
2023/12/18 05:43:52;;;;;;;15.20;4.68;;;;;;;;;;6137924;23;20025;-82
2023/12/18 05:46:18;;;;;;;13.55;5.00;;;;;;;;;;6138189;23;20458;-82
2023/12/18 05:48:44;;;;;;;15.82;5.07;;;;;;;;;;6138080;23;20462;-82
2023/12/18 05:51:24;;;;;;;16.35;5.22;;;;;;;;;;6138104;23;20013;-82
2023/12/18 05:53:50;;;;;;;13.88;4.75;;;;;;;;;;6138085;23;20346;-82
2023/12/18 05:56:17;;;;;;;10.75;4.20;;;;;;;;;;6136897;23;20017;-82
2023/12/18 05:58:43;;;;;;;19.92;5.55;;;;;;;;;;6137366;23;20025;-82
2023/12/18 06:01:09;;;;;;;19.27;5.22;;;;;;;;;;6137348;23;20017;-82
2023/12/18 06:03:35;;;;;;;13.07;4.60;;;;;;;;;;6161091;23;20028;-82
2023/12/18 06:06:01;;;;;;;13.60;4.43;;;;;;;;;;6136728;23;20013;-82
2023/12/18 06:08:27;;;;;;;14.63;4.40;;;;;;;;;;6136476;23;20024;-82
2023/12/18 06:10:53;;;;;;;12.32;4.40;;;;;;;;;;6137346;23;20017;-82
2023/12/18 06:13:20;;;;;;;13.65;4.57;;;;;;;;;;6137114;23;20489;-82
2023/12/18 06:15:46;;;;;;;15.90;4.68;;;;;;;;;;6137532;23;20013;-82
2023/12/18 06:18:12;;;;;;;18.13;5.03;;;;;;;;;;6137473;23;20094;-82
2023/12/18 06:20:38;;;;;;;15.50;4.78;;;;;;;;;;6137663;23;20024;-82
2023/12/18 06:23:04;;;;;;;20.52;5.20;;;;;;;;;;6137344;23;20017;-82
2023/12/18 06:25:30;;;;;;;12.18;4.35;;;;;;;;;;6136267;23;20024;-82
2023/12/18 06:27:56;;;;;;;15.38;5.60;;;;;;;;;;6137275;23;20086;-83
2023/12/18 06:30:24;;;;;;;17.30;4.38;;;;;;;;;;6137396;23;20021;-83
2023/12/18 06:32:50;;;;;;;14.65;4.55;;;;;;;;;;6138755;23;20021;-83
2023/12/18 06:35:16;;;;;;;12.10;4.40;;;;;;;;;;6163598;23;20021;-82
2023/12/18 06:37:42;;;;;;;18.33;4.80;;;;;;;;;;6162857;23;20023;-82
2023/12/18 06:40:09;;;;;;;16.35;4.93;;;;;;;;;;6160911;23;20017;-82
2023/12/18 06:42:35;;;;;;;19.48;5.00;;;;;;;;;;6135076;23;20335;-82
2023/12/18 06:45:01;;;;;;;15.48;4.57;;;;;;;;;;6135376;23;20438;-82
2023/12/18 06:47:28;;;;;;;15.13;4.82;;;;;;;;;;6134935;23;20017;-83
2023/12/18 06:49:57;;;;;;;13.00;4.93;;;;;;;;;;6159271;23;20021;-83
2023/12/18 06:52:26;;;;;;;18.58;5.38;;;;;;;;;;6135117;23;20083;-85
2023/12/18 06:54:52;;;;;;;22.90;5.13;;;;;;;;;;6135053;23;20021;-84
2023/12/18 06:57:18;;;;;;;22.40;5.30;;;;;;;;;;6135065;23;20349;-84
2023/12/18 06:59:49;;;;;;;19.30;5.35;;;;;;;;;;6135072;23;20017;-84
2023/12/18 07:02:15;;;;;;;12.30;5.03;;;;;;;;;;6135700;23;20028;-84
2023/12/18 07:04:41;;;;;;;12.57;4.53;;;;;;;;;;6134848;23;20013;-84
2023/12/18 07:07:10;;;;;;;16.23;4.90;;;;;;;;;;6133791;23;20052;-84
2023/12/18 07:09:36;;;;;;;15.07;4.60;;;;;;;;;;6136146;23;20021;-83
2023/12/18 07:12:08;;;;;;;17.23;4.70;;;;;;;;;;6135453;23;20017;-84
2023/12/18 07:14:42;;;;;;;13.77;4.65;;;;;;;;;;6136079;23;20021;-85
2023/12/18 07:17:09;;;;;;;15.52;4.63;;;;;;;;;;6135663;23;20024;-83
2023/12/18 07:19:38;;;;;;;13.68;4.70;;;;;;;;;;6160121;23;20095;-83
2023/12/18 07:22:04;;;;;;;17.15;5.60;;;;;;;;;;6135000;23;20093;-84
2023/12/18 07:24:30;;;;;;;15.77;4.85;;;;;;;;;;6134975;23;20017;-84
2023/12/18 07:26:57;;;;;;;18.52;5.80;;;;;;;;;;6159888;23;20072;-84
2023/12/18 07:29:23;;;;;;;20.05;5.18;;;;;;;;;;6134791;23;20052;-84
2023/12/18 07:31:49;;;;;;;16.88;4.97;;;;;;;;;;6134500;23;20373;-84
2023/12/18 07:34:15;;;;;;;14.00;5.28;;;;;;;;;;6134960;23;20013;-84
2023/12/18 07:36:41;;;;;;;17.85;4.60;;;;;;;;;;6135003;23;20045;-84
2023/12/18 07:39:08;;;;;;;17.05;4.95;;;;;;;;;;6159621;23;20021;-84
2023/12/18 07:41:34;;;;;;;14.13;4.78;;;;;;;;;;6135126;23;20024;-84
2023/12/18 07:44:00;;;;;;;18.65;4.57;;;;;;;;;;6134416;23;20478;-85
2023/12/18 07:46:27;;;;;;;15.95;5.28;;;;;;;;;;6134239;23;20068;-84
2023/12/18 07:48:53;;;;;;;18.23;4.95;;;;;;;;;;6134881;23;20049;-84
2023/12/18 07:51:19;;;;;;;16.80;5.53;;;;;;;;;;6185128;23;20024;-83
2023/12/18 07:53:45;;;;;;;15.68;4.75;;;;;;;;;;6134864;23;20063;-84
2023/12/18 07:56:11;;;;;;;14.32;5.25;;;;;;;;;;6132756;23;20028;-83
2023/12/18 07:58:38;;;;;;;16.67;4.57;;;;;;;;;;6157577;23;20021;-84
2023/12/18 08:01:07;;;;;;;12.48;5.07;;;;;;;;;;6133469;23;20016;-84
2023/12/18 08:03:33;;;;;;;17.88;5.30;;;;;;;;;;6184707;23;20017;-84
2023/12/18 08:05:59;;;;;;;16.02;4.85;;;;;;;;;;6131428;23;20118;-84
2023/12/18 08:08:25;;;;;;;12.80;4.82;;;;;;;;;;6184823;23;20029;-85
2023/12/18 08:10:51;;;;;;;17.08;6.82;;;;;;;;;;6133853;23;20464;-82
2023/12/18 08:13:18;;;;;;;22.10;10.50;;;;;;;;;;6133196;23;20100;-83
2023/12/18 08:15:44;;;;;;;20.05;10.65;;;;;;;;;;6134067;23;20108;-83
2023/12/18 08:18:15;;;;;;;22.65;12.15;;;;;;;;;;6185044;23;20021;-84
2023/12/18 08:20:41;;;;;;;19.13;10.70;;;;;;;;;;6134148;23;20017;-83
2023/12/18 08:23:07;;;;;;;19.95;11.02;;;;;;;;;;6134300;23;20021;-83
2023/12/18 08:25:33;;;;;;;23.40;10.98;;;;;;;;;;6159217;23;20087;-83
2023/12/18 08:27:59;;;;;;;23.20;11.40;;;;;;;;;;6135130;23;20027;-86
2023/12/18 08:30:26;;;;;;;23.92;11.27;;;;;;;;;;6133810;23;20080;-84
2023/12/18 08:32:52;;;;;;;22.52;10.98;;;;;;;;;;6133333;23;20364;-84
2023/12/18 08:35:20;;;;;;;22.98;11.00;;;;;;;;;;6133925;23;20338;-83
2023/12/18 08:37:47;;;;;;;25.70;11.02;;;;;;;;;;6158632;23;20017;-84
2023/12/18 08:40:27;;;;;;;22.35;12.02;;;;;;;;;;6132752;23;20096;-83
2023/12/18 08:42:55;;;;;;;19.60;11.90;;;;;;;;;;6133815;23;20013;-85
2023/12/18 08:45:21;;;;;;;22.95;11.88;;;;;;;;;;6134244;23;20021;-85
2023/12/18 08:47:47;;;;;;;24.55;13.88;;;;;;;;;;6134421;23;20091;-84
2023/12/18 08:50:14;;;;;;;23.27;13.00;;;;;;;;;;6133791;23;20308;-84
2023/12/18 08:52:40;;;;;;;23.55;13.05;;;;;;;;;;6133780;23;20028;-85
2023/12/18 08:55:06;;;;;;;27.42;14.18;;;;;;;;;;6133617;23;20025;-85
2023/12/18 08:57:33;;;;;;;26.02;13.48;;;;;;;;;;6159152;23;20017;-86
2023/12/18 08:59:59;;;;;;;27.35;13.20;;;;;;;;;;6133140;23;20019;-84
2023/12/18 09:02:25;;;;;;;28.48;13.60;;;;;;;;;;6133589;23;20085;-85
2023/12/18 09:04:51;;;;;;;25.35;13.43;;;;;;;;;;6133576;23;20024;-85
2023/12/18 09:07:17;;;;;;;28.20;13.20;;;;;;;;;;6184156;23;20446;-85
2023/12/18 09:09:43;;;;;;;26.58;13.00;;;;;;;;;;6132907;23;20101;-85
2023/12/18 09:12:10;;;;;;;22.77;12.35;;;;;;;;;;6135063;23;20017;-85
2023/12/18 09:14:36;;;;;;;25.52;12.15;;;;;;;;;;6135890;23;20025;-85
2023/12/18 09:17:03;;;;;;;23.75;12.45;;;;;;;;;;6135022;23;20076;-85
2023/12/18 09:19:35;;;;;;;21.63;10.60;;;;;;;;;;6135679;23;20446;-85
2023/12/18 09:22:01;;;;;;;21.90;10.85;;;;;;;;;;6135704;23;20028;-85
2023/12/18 09:24:28;;;;;;;22.17;11.60;;;;;;;;;;6135389;23;20013;-85
2023/12/18 09:26:55;;;;;;;24.45;12.20;;;;;;;;;;6135412;23;20049;-85
2023/12/18 09:29:22;;;;;;;18.30;10.88;;;;;;;;;;6134907;23;20088;-85
2023/12/18 09:31:49;;;;;;;21.27;10.57;;;;;;;;;;6134255;23;20021;-84
2023/12/18 09:34:15;;;;;;;24.30;10.88;;;;;;;;;;6134935;23;20021;-84
2023/12/18 09:36:41;;;;;;;24.17;11.35;;;;;;;;;;6135643;23;20021;-84
2023/12/18 09:39:07;;;;;;;23.63;11.38;;;;;;;;;;6159822;23;20017;-84
2023/12/18 09:41:33;;;;;;;22.13;11.90;;;;;;;;;;6134665;23;20442;-84
2023/12/18 09:44:00;;;;;;;18.80;10.68;;;;;;;;;;6160210;23;20067;-84
2023/12/18 09:46:26;;;;;;;21.00;12.27;;;;;;;;;;6135484;23;20472;-84
2023/12/18 09:48:53;;;;;;;21.55;10.93;;;;;;;;;;6160035;23;20017;-84
2023/12/18 09:51:26;;;;;;;29.45;12.85;;;;;;;;;;6135254;23;20024;-84
2023/12/18 09:53:53;;;;;;;19.67;10.77;;;;;;;;;;6135393;23;20466;-84
2023/12/18 09:56:20;;;;;;;20.45;11.60;;;;;;;;;;6159422;23;20032;-84
2023/12/18 09:58:47;;;;;;;18.92;10.88;;;;;;;;;;6134663;23;20108;-84
2023/12/18 10:01:13;;;;;;;23.23;11.40;;;;;;;;;;6134971;23;20028;-84
2023/12/18 10:03:39;;;;;;;26.02;10.68;;;;;;;;;;6159771;23;20014;-84
2023/12/18 10:06:05;;;;;;;24.60;11.20;;;;;;;;;;6159506;23;20055;-84
2023/12/18 10:08:31;;;;;;;23.38;10.27;;;;;;;;;;6159077;23;20057;-87
2023/12/18 10:10:58;;;;;;;29.45;11.10;;;;;;;;;;6135312;23;20048;-84
2023/12/18 10:13:27;;;;;;;20.38;11.23;;;;;;;;;;6135579;23;20013;-84
2023/12/18 10:15:58;;;;;;;22.88;10.38;;;;;;;;;;6159754;23;20096;-84
2023/12/18 10:18:25;;;;;;;20.45;9.82;;;;;;;;;;6160249;23;20342;-84
2023/12/18 10:20:54;;;;;;;22.50;10.30;;;;;;;;;;6135637;23;20438;-85
2023/12/18 10:23:20;;;;;;;22.58;11.10;;;;;;;;;;6159388;23;20017;-85
2023/12/18 10:25:48;;;;;;;22.05;11.50;;;;;;;;;;6134970;23;20072;-83
2023/12/18 10:28:14;;;;;;;22.88;12.30;;;;;;;;;;6135702;23;20013;-83
2023/12/18 10:30:40;;;;;;;22.38;12.73;;;;;;;;;;6159417;23;20017;-84
2023/12/18 10:33:09;;;;;;;27.45;13.63;;;;;;;;;;6159341;23;20055;-84
2023/12/18 10:35:37;;;;;;;24.73;12.32;;;;;;;;;;6135036;23;20020;-84
2023/12/18 10:38:03;;;;;;;25.88;13.07;;;;;;;;;;6134467;23;20052;-84
2023/12/18 10:40:29;;;;;;;24.95;12.38;;;;;;;;;;6134925;23;20049;-83
2023/12/18 10:42:55;;;;;;;26.67;12.82;;;;;;;;;;6159993;23;20350;-84
2023/12/18 10:45:22;;;;;;;26.48;13.57;;;;;;;;;;6135719;23;20013;-84
2023/12/18 10:47:48;;;;;;;30.13;13.88;;;;;;;;;;6186847;23;20493;-84
2023/12/18 10:50:16;;;;;;;26.45;14.77;;;;;;;;;;6135166;23;20013;-84
2023/12/18 10:52:46;;;;;;;22.35;13.40;;;;;;;;;;6135845;23;20021;-83
2023/12/18 10:55:14;;;;;;;24.00;14.27;;;;;;;;;;6135369;23;20021;-84
2023/12/18 10:57:42;;;;;;;23.38;13.75;;;;;;;;;;6135662;23;20025;-82
2023/12/18 11:00:10;;;;;;;29.15;14.48;;;;;;;;;;6135819;23;20353;-83
2023/12/18 11:02:37;;;;;;;24.13;13.52;;;;;;;;;;6164609;23;20025;-82
2023/12/18 11:05:03;;;;;;;23.45;13.02;;;;;;;;;;6163952;23;20053;-82
2023/12/18 11:07:29;;;;;;;26.08;13.50;;;;;;;;;;6139456;23;20017;-82
2023/12/18 11:09:55;;;;;;;26.30;13.80;;;;;;;;;;6164754;23;20346;-82
2023/12/18 11:12:23;;;;;;;25.27;14.27;;;;;;;;;;6164804;23;20017;-82
2023/12/18 11:14:49;;;;;;;29.50;13.68;;;;;;;;;;6137551;23;20057;-83
2023/12/18 11:17:32;;;;;;;28.83;12.88;;;;;;;;;;6139148;23;20040;-82
2023/12/18 11:20:04;;;;;;;24.00;11.88;;;;;;;;;;6137796;23;20075;-83
2023/12/18 11:22:42;;;;;;;21.77;13.18;;;;;;;;;;6136842;23;20024;-83
2023/12/18 11:25:09;;;;;;;23.70;12.32;;;;;;;;;;6162843;23;20053;-83
2023/12/18 11:27:36;;;;;;;24.35;12.68;;;;;;;;;;6136766;23;20466;-83
2023/12/18 11:30:02;;;;;;;21.75;11.82;;;;;;;;;;6161924;23;20028;-83
2023/12/18 11:32:42;;;;;;;22.45;12.05;;;;;;;;;;6135886;23;20052;-83
2023/12/18 11:35:09;;;;;;;28.38;12.90;;;;;;;;;;6135438;23;20337;-83
2023/12/18 11:37:42;;;;;;;22.08;11.43;;;;;;;;;;6160601;23;20020;-83
2023/12/18 11:40:29;;;;;;;19.63;11.30;;;;;;;;;;6160700;23;20027;-83
2023/12/18 11:42:55;;;;;;;23.25;10.90;;;;;;;;;;6117339;23;20013;-82
2023/12/18 11:45:25;;;;;;;22.02;10.68;;;;;;;;;;6136982;23;20072;-82
2023/12/18 11:47:53;;;;;;;20.02;10.30;;;;;;;;;;6161463;23;20017;-82
2023/12/18 11:50:20;;;;;;;20.85;10.15;;;;;;;;;;6133785;23;20052;-82
2023/12/18 11:52:50;;;;;;;22.75;11.55;;;;;;;;;;6135232;23;20025;-82
2023/12/18 11:55:35;;;;;;;19.90;10.57;;;;;;;;;;6135010;23;20349;-82
2023/12/18 11:58:04;;;;;;;20.98;10.65;;;;;;;;;;6134587;23;20449;-84
2023/12/18 12:00:34;;;;;;;21.83;10.98;;;;;;;;;;6135151;23;20055;-83
2023/12/18 12:03:06;;;;;;;19.02;11.55;;;;;;;;;;6134531;23;20382;-83
2023/12/18 12:05:33;;;;;;;18.05;11.52;;;;;;;;;;6186194;23;20072;-82
2023/12/18 12:08:02;;;;;;;21.13;11.35;;;;;;;;;;6134842;23;20091;-83
2023/12/18 12:10:28;;;;;;;18.08;11.13;;;;;;;;;;6134989;23;20096;-83
2023/12/18 12:12:55;;;;;;;21.90;10.57;;;;;;;;;;6135734;23;20529;-83
2023/12/18 12:15:24;;;;;;;21.55;10.18;;;;;;;;;;6158721;23;20023;-83
2023/12/18 12:18:06;;;;;;;20.02;10.18;;;;;;;;;;6133858;23;20021;-83
2023/12/18 12:20:33;;;;;;;22.25;11.38;;;;;;;;;;6134145;23;20315;-83
2023/12/18 12:22:59;;;;;;;21.25;10.90;;;;;;;;;;6133414;23;20017;-83
2023/12/18 12:25:25;;;;;;;23.13;10.82;;;;;;;;;;6185461;23;20055;-84
2023/12/18 12:27:52;;;;;;;22.10;10.70;;;;;;;;;;6159881;23;20021;-83
2023/12/18 12:30:18;;;;;;;17.50;10.07;;;;;;;;;;6160201;23;20024;-83
2023/12/18 12:32:47;;;;;;;21.75;10.38;;;;;;;;;;6160479;23;20025;-82
2023/12/18 12:35:16;;;;;;;18.23;10.02;;;;;;;;;;6135769;23;20338;-83
2023/12/18 12:37:42;;;;;;;19.88;10.05;;;;;;;;;;6160466;23;20017;-83
2023/12/18 12:40:09;;;;;;;21.48;10.20;;;;;;;;;;6135300;23;20049;-83
2023/12/18 12:42:39;;;;;;;22.67;11.10;;;;;;;;;;6135837;23;20014;-83
2023/12/18 12:45:11;;;;;;;20.50;9.98;;;;;;;;;;6136310;23;20013;-83
2023/12/18 12:47:41;;;;;;;22.33;11.02;;;;;;;;;;6163016;23;20024;-82
2023/12/18 12:50:08;;;;;;;19.50;12.38;;;;;;;;;;6139634;23;20024;-82
2023/12/18 12:52:38;;;;;;;22.65;12.32;;;;;;;;;;6138425;23;20013;-83
2023/12/18 12:55:05;;;;;;;22.23;12.70;;;;;;;;;;6163041;23;20017;-83
2023/12/18 12:57:31;;;;;;;23.90;11.75;;;;;;;;;;6138821;23;20014;-83
2023/12/18 12:59:58;;;;;;;26.67;14.95;;;;;;;;;;6138657;23;20052;-83
2023/12/18 13:02:25;;;;;;;22.17;10.63;;;;;;;;;;6140052;23;20021;-83
2023/12/18 13:04:52;;;;;;;20.00;10.13;;;;;;;;;;6165159;23;20382;-83
2023/12/18 13:07:19;;;;;;;21.27;11.23;;;;;;;;;;6163840;23;20024;-83
2023/12/18 13:09:45;;;;;;;21.08;11.45;;;;;;;;;;6165635;23;20021;-83
2023/12/18 13:12:15;;;;;;;17.80;10.68;;;;;;;;;;6141388;23;20446;-83
2023/12/18 13:14:41;;;;;;;23.10;11.13;;;;;;;;;;6165720;23;20021;-83
2023/12/18 13:17:08;;;;;;;24.08;10.57;;;;;;;;;;6141518;23;20021;-82
2023/12/18 13:19:34;;;;;;;20.67;9.90;;;;;;;;;;6192636;23;20013;-82
2023/12/18 13:22:01;;;;;;;23.73;12.50;;;;;;;;;;6164827;23;20017;-83
2023/12/18 13:24:29;;;;;;;23.67;11.88;;;;;;;;;;6165383;23;20426;-82
2023/12/18 13:26:55;;;;;;;25.20;14.95;;;;;;;;;;6141054;23;20082;-82
2023/12/18 13:29:22;;;;;;;23.70;12.55;;;;;;;;;;6141899;23;20066;-83
2023/12/18 13:31:48;;;;;;;26.35;12.93;;;;;;;;;;6141151;23;20021;-83
2023/12/18 13:34:14;;;;;;;26.85;12.00;;;;;;;;;;6165324;23;20484;-83
2023/12/18 13:36:40;;;;;;;20.95;12.88;;;;;;;;;;6140738;23;20028;-82
2023/12/18 13:39:07;;;;;;;19.20;12.63;;;;;;;;;;6140826;23;20183;-83
2023/12/18 13:41:36;;;;;;;27.70;13.45;;;;;;;;;;6192602;23;20017;-82
2023/12/18 13:44:03;;;;;;;27.63;12.75;;;;;;;;;;6137362;23;20448;-85
2023/12/18 13:46:30;;;;;;;24.88;13.40;;;;;;;;;;6165983;23;20017;-82
2023/12/18 13:48:56;;;;;;;22.15;12.60;;;;;;;;;;6140421;23;20055;-82
2023/12/18 13:51:22;;;;;;;27.58;13.63;;;;;;;;;;6163791;23;20087;-82
2023/12/18 13:53:48;;;;;;;25.08;12.25;;;;;;;;;;6164967;23;20032;-82
2023/12/18 13:56:15;;;;;;;20.13;11.05;;;;;;;;;;6190530;23;20018;-82
2023/12/18 13:58:41;;;;;;;23.63;11.07;;;;;;;;;;6141009;23;20025;-83
2023/12/18 14:01:07;;;;;;;20.92;10.85;;;;;;;;;;6165056;23;20025;-83
2023/12/18 14:03:33;;;;;;;20.58;10.43;;;;;;;;;;6138808;23;20080;-84
2023/12/18 14:06:00;;;;;;;23.02;10.40;;;;;;;;;;6139492;23;20021;-82
2023/12/18 14:08:26;;;;;;;21.70;9.77;;;;;;;;;;6189161;23;20100;-81
2023/12/18 14:10:53;;;;;;;19.48;9.20;;;;;;;;;;6189569;23;20021;-82
2023/12/18 14:13:20;;;;;;;21.52;8.77;;;;;;;;;;6162052;23;20017;-82
2023/12/18 14:15:46;;;;;;;24.55;9.13;;;;;;;;;;6162504;23;20021;-82
2023/12/18 14:18:12;;;;;;;18.88;8.68;;;;;;;;;;6163422;23;20079;-82
2023/12/18 14:20:38;;;;;;;22.55;8.68;;;;;;;;;;6138555;23;20476;-82
2023/12/18 14:23:04;;;;;;;21.80;8.95;;;;;;;;;;6189746;23;20017;-82
2023/12/18 14:25:33;;;;;;;20.73;9.50;;;;;;;;;;6163700;23;20017;-82